createdAt,value
2019-01-20T00:00:02.599Z,7.50
2019-01-20T00:05:11.491Z,6.40
2019-01-20T00:10:18.859Z,6.37
2019-01-20T00:15:25.050Z,5.93
2019-01-20T00:20:32.225Z,6.07
2019-01-20T00:25:40.741Z,5.97
2019-01-20T00:30:48.716Z,4.60
2019-01-20T00:36:15.868Z,7.33
2019-01-20T00:41:24.713Z,6.33
2019-01-20T00:46:32.212Z,6.33
2019-01-20T00:51:39.481Z,6.40
2019-01-20T00:56:48.480Z,5.43
2019-01-20T01:01:55.566Z,6.07
2019-01-20T01:07:04.678Z,7.30
2019-01-20T01:12:15.984Z,6.20
2019-01-20T01:17:23.321Z,5.77
2019-01-20T01:22:30.505Z,7.37
2019-01-20T01:27:39.347Z,6.97
2019-01-20T01:32:46.370Z,6.97
2019-01-20T01:37:52.900Z,5.90
2019-01-20T01:42:58.779Z,6.63
2019-01-20T01:48:04.845Z,6.93
2019-01-20T01:53:10.884Z,7.97
2019-01-20T01:58:16.755Z,7.03
2019-01-20T02:03:22.828Z,5.30
2019-01-20T02:08:30.063Z,5.93
2019-01-20T02:13:40.299Z,7.40
2019-01-20T02:18:46.407Z,6.90
2019-01-20T02:23:53.568Z,7.50
2019-01-20T02:29:07.768Z,9.00
2019-01-20T02:34:15.429Z,8.47
2019-01-20T02:39:21.566Z,8.10
2019-01-20T02:44:28.962Z,8.37
2019-01-20T02:49:36.477Z,9.77
2019-01-20T02:54:43.767Z,7.40
2019-01-20T02:59:50.968Z,8.83
2019-01-20T03:04:58.224Z,7.87
2019-01-20T03:10:06.368Z,11.80
2019-01-20T03:15:12.891Z,8.10
2019-01-20T03:20:21.560Z,6.80
2019-01-20T03:25:28.200Z,8.30
2019-01-20T03:30:35.693Z,7.33
2019-01-20T03:35:44.789Z,6.47
2019-01-20T03:40:50.709Z,8.70
2019-01-20T03:46:00.406Z,7.60
2019-01-20T03:51:06.624Z,8.47
2019-01-20T03:56:13.808Z,8.17
2019-01-20T04:01:21.698Z,8.37
2019-01-20T04:06:29.115Z,7.00
2019-01-20T04:11:36.838Z,6.80
2019-01-20T04:16:43.271Z,7.60
2019-01-20T04:21:50.453Z,7.23
2019-01-20T04:26:58.068Z,8.47
2019-01-20T04:32:05.172Z,9.80
2019-01-20T04:37:14.257Z,7.93
2019-01-20T04:42:28.754Z,8.50
2019-01-20T04:47:29.557Z,7.77
2019-01-20T04:52:37.173Z,8.90
2019-01-20T04:57:47.475Z,9.70
2019-01-20T05:02:54.387Z,6.83
2019-01-20T05:08:02.447Z,7.37
2019-01-20T05:13:09.764Z,9.50
2019-01-20T05:18:16.836Z,9.20
2019-01-20T05:23:24.012Z,8.77
2019-01-20T05:28:29.949Z,9.33
2019-01-20T05:33:38.024Z,8.73
2019-01-20T05:38:45.905Z,8.10
2019-01-20T05:43:52.238Z,8.47
2019-01-20T05:48:58.151Z,10.10
2019-01-20T05:54:05.179Z,8.67
2019-01-20T05:59:13.079Z,8.83
2019-01-20T06:04:20.229Z,8.20
2019-01-20T06:09:26.550Z,8.03
2019-01-20T06:14:34.435Z,6.90
2019-01-20T06:19:41.725Z,7.90
2019-01-20T06:24:49.869Z,9.20
2019-01-20T06:29:56.336Z,8.27
2019-01-20T06:35:05.583Z,9.20
2019-01-20T06:40:32.107Z,9.47
2019-01-20T06:45:39.958Z,9.67
2019-01-20T06:50:45.927Z,9.17
2019-01-20T06:55:51.995Z,8.67
2019-01-20T07:00:59.112Z,9.47
2019-01-20T07:06:06.413Z,8.93
2019-01-20T07:11:13.871Z,10.00
2019-01-20T07:16:21.644Z,9.77
2019-01-20T07:21:28.336Z,8.37
2019-01-20T07:26:34.543Z,8.90
2019-01-20T07:31:41.462Z,10.27
2019-01-20T07:36:48.809Z,8.77
2019-01-20T07:41:54.940Z,10.70
2019-01-20T07:47:02.037Z,9.93
2019-01-20T07:52:09.014Z,9.83
2019-01-20T07:57:16.760Z,9.67
2019-01-20T08:02:24.486Z,9.07
2019-01-20T08:07:32.043Z,8.60
2019-01-20T08:12:39.278Z,11.13
2019-01-20T08:17:46.384Z,10.30
2019-01-20T08:22:54.082Z,10.00
2019-01-20T08:28:02.002Z,10.27
2019-01-20T08:33:10.305Z,11.07
2019-01-20T08:38:17.800Z,11.23
2019-01-20T08:43:31.557Z,12.50
2019-01-20T08:48:33.820Z,13.67
2019-01-20T08:53:40.636Z,12.70
2019-01-20T08:58:46.536Z,13.07
2019-01-20T09:03:53.487Z,12.40
2019-01-20T09:09:01.120Z,13.77
2019-01-20T09:14:08.480Z,10.57
2019-01-20T09:19:15.326Z,13.77
2019-01-20T09:24:22.730Z,21.40
2019-01-20T09:29:30.641Z,13.33
2019-01-20T09:34:36.848Z,12.60
2019-01-20T09:39:44.246Z,12.60
2019-01-20T09:44:51.190Z,13.33
2019-01-20T09:49:59.409Z,13.13
2019-01-20T09:55:08.410Z,13.90
2019-01-20T10:00:16.823Z,14.23
2019-01-20T10:05:23.390Z,14.23
2019-01-20T10:10:29.866Z,13.60
2019-01-20T10:15:44.173Z,15.20
2019-01-20T10:20:51.116Z,13.23
2019-01-20T10:25:57.422Z,14.40
2019-01-20T10:31:05.977Z,13.70
2019-01-20T10:36:12.559Z,15.33
2019-01-20T10:41:20.418Z,15.17
2019-01-20T10:46:30.834Z,14.67
2019-01-20T10:51:38.339Z,16.07
2019-01-20T10:56:45.990Z,15.23
2019-01-20T11:01:53.393Z,16.67
2019-01-20T11:07:00.828Z,16.67
2019-01-20T11:12:08.584Z,16.60
2019-01-20T11:17:15.034Z,16.80
2019-01-20T11:22:23.301Z,16.20
2019-01-20T11:27:30.655Z,16.30
2019-01-20T11:32:42.303Z,17.17
2019-01-20T11:37:45.534Z,17.20
2019-01-20T11:42:53.788Z,15.60
2019-01-20T11:47:59.760Z,15.70
2019-01-20T11:53:05.927Z,16.67
2019-01-20T11:58:15.069Z,15.53
2019-01-20T12:03:21.111Z,15.20
2019-01-20T12:08:30.703Z,16.00
2019-01-20T12:13:37.033Z,11.77
2019-01-20T12:18:44.676Z,13.90
2019-01-20T12:23:51.983Z,12.40
2019-01-20T12:28:58.499Z,13.73
2019-01-20T12:34:05.615Z,14.43
2019-01-20T12:39:12.618Z,14.87
2019-01-20T12:44:21.098Z,12.60
2019-01-20T12:49:28.373Z,14.50
2019-01-20T12:54:35.473Z,16.00
2019-01-20T12:59:43.216Z,19.03
2019-01-20T13:04:51.128Z,14.00
2019-01-20T13:09:58.417Z,16.13
2019-01-20T13:15:05.403Z,14.97
2019-01-20T13:20:16.721Z,15.03
2019-01-20T13:25:25.074Z,13.63
2019-01-20T13:30:31.439Z,12.70
2019-01-20T13:35:40.071Z,15.23
2019-01-20T13:40:49.309Z,16.20
2019-01-20T13:45:56.652Z,15.17
2019-01-20T13:51:02.681Z,16.97
2019-01-20T13:56:09.037Z,14.50
2019-01-20T14:01:17.027Z,16.23
2019-01-20T14:06:24.110Z,16.40
2019-01-20T14:11:30.135Z,15.47
2019-01-20T14:16:37.553Z,15.23
2019-01-20T14:21:45.030Z,13.47
2019-01-20T14:26:53.726Z,15.23
2019-01-20T14:32:01.072Z,13.60
2019-01-20T14:37:08.115Z,16.60
2019-01-20T14:42:15.305Z,16.07
2019-01-20T14:47:22.983Z,13.20
2019-01-20T14:52:30.845Z,16.27
2019-01-20T14:57:37.280Z,14.23
2019-01-20T15:02:45.241Z,13.40
2019-01-20T15:07:51.602Z,15.63
2019-01-20T15:12:58.826Z,15.73
2019-01-20T15:18:06.688Z,15.70
2019-01-20T15:23:13.728Z,14.73
2019-01-20T15:28:21.117Z,16.77
2019-01-20T15:33:28.311Z,16.43
2019-01-20T15:38:36.579Z,15.93
2019-01-20T15:43:44.118Z,16.13
2019-01-20T15:48:51.572Z,15.80
2019-01-20T15:53:59.183Z,17.03
2019-01-20T15:59:08.200Z,17.67
2019-01-20T16:04:14.682Z,15.97
2019-01-20T16:09:22.051Z,16.40
2019-01-20T16:14:28.419Z,14.93
2019-01-20T16:19:36.056Z,17.10
2019-01-20T16:24:42.861Z,17.43
2019-01-20T16:29:49.290Z,15.00
2019-01-20T16:34:55.965Z,13.73
2019-01-20T16:40:02.531Z,19.33
2019-01-20T16:45:12.140Z,16.53
2019-01-20T16:50:21.205Z,17.67
2019-01-20T16:55:31.033Z,16.20
2019-01-20T17:00:39.977Z,14.00
2019-01-20T17:05:59.422Z,18.57
2019-01-20T17:11:09.207Z,13.93
2019-01-20T17:16:16.785Z,14.07
2019-01-20T17:21:25.443Z,15.10
2019-01-20T17:26:36.488Z,13.60
2019-01-20T17:31:42.336Z,15.23
2019-01-20T17:36:49.998Z,14.80
2019-01-20T17:41:57.446Z,17.23
2019-01-20T17:47:06.966Z,14.50
2019-01-20T17:52:13.895Z,15.20
2019-01-20T17:57:27.106Z,15.80
2019-01-20T18:02:35.911Z,16.50
2019-01-20T18:07:42.989Z,15.93
2019-01-20T18:12:53.231Z,14.87
2019-01-20T18:17:59.411Z,13.93
2019-01-20T18:23:05.774Z,14.07
2019-01-20T18:28:13.866Z,15.47
2019-01-20T18:33:19.675Z,15.27
2019-01-20T18:38:26.359Z,15.53
2019-01-20T18:43:33.279Z,18.07
2019-01-20T18:48:40.975Z,14.47
2019-01-20T18:53:48.829Z,14.93
2019-01-20T18:58:56.003Z,12.40
2019-01-20T19:04:03.526Z,13.90
2019-01-20T19:09:10.007Z,13.93
2019-01-20T19:14:17.479Z,13.13
2019-01-20T19:19:26.293Z,11.87
2019-01-20T19:24:32.974Z,14.57
2019-01-20T19:29:40.923Z,14.13
2019-01-20T19:34:48.612Z,13.00
2019-01-20T19:39:56.080Z,13.03
2019-01-20T19:45:03.820Z,13.57
2019-01-20T19:50:10.975Z,13.63
2019-01-20T19:55:24.026Z,11.03
2019-01-20T20:00:31.180Z,12.47
2019-01-20T20:05:40.739Z,12.10
2019-01-20T20:10:48.210Z,11.40
2019-01-20T20:15:55.168Z,11.00
2019-01-20T20:21:02.779Z,13.47
2019-01-20T20:26:09.171Z,10.60
2019-01-20T20:31:16.563Z,13.00
2019-01-20T20:36:26.011Z,12.87
2019-01-20T20:41:33.711Z,13.03
2019-01-20T20:46:41.485Z,13.13
2019-01-20T20:51:51.110Z,16.33
2019-01-20T20:56:57.974Z,14.40
2019-01-20T21:02:05.346Z,12.70
2019-01-20T21:07:11.568Z,13.90
2019-01-20T21:12:17.951Z,15.53
2019-01-20T21:17:25.552Z,12.27
2019-01-20T21:22:32.897Z,11.93
2019-01-20T21:27:40.784Z,13.23
2019-01-20T21:32:46.867Z,12.20
2019-01-20T21:37:54.971Z,13.17
2019-01-20T21:43:02.917Z,13.83
2019-01-20T21:48:09.209Z,15.07
2019-01-20T21:53:16.577Z,12.03
2019-01-20T21:58:23.384Z,12.90
2019-01-20T22:03:31.143Z,12.87
2019-01-20T22:08:38.970Z,12.73
2019-01-20T22:13:46.508Z,12.23
2019-01-20T22:18:52.720Z,11.87
2019-01-20T22:24:00.280Z,13.37
2019-01-20T22:29:07.760Z,13.00
2019-01-20T22:34:14.670Z,12.57
2019-01-20T22:39:22.078Z,12.67
2019-01-20T22:44:28.756Z,12.00
2019-01-20T22:49:36.387Z,11.60
2019-01-20T22:54:43.793Z,13.23
2019-01-20T22:59:51.139Z,13.30
2019-01-20T23:04:57.616Z,12.17
2019-01-20T23:10:06.142Z,12.03
2019-01-20T23:15:12.534Z,12.50
2019-01-20T23:20:18.884Z,12.17
2019-01-20T23:25:25.685Z,13.90
2019-01-20T23:30:33.569Z,11.80
2019-01-20T23:35:40.014Z,12.80
2019-01-20T23:40:46.267Z,11.47
2019-01-20T23:45:53.754Z,11.67
2019-01-20T23:51:00.697Z,12.73
2019-01-20T23:56:08.545Z,11.97
